createdAt,value
2024-03-01T00:01:03.283Z,39.60
2024-03-01T00:06:05.289Z,36.40
2024-03-01T00:11:07.363Z,43.13
2024-03-01T00:16:09.072Z,41.47
2024-03-01T00:21:17.635Z,44.20
2024-03-01T00:26:19.429Z,46.65
2024-03-01T00:31:21.219Z,55.25
2024-03-01T00:36:22.953Z,50.50
2024-03-01T00:41:24.656Z,58.25
2024-03-01T00:46:26.577Z,56.97
2024-03-01T00:51:28.418Z,61.92
2024-03-01T00:56:30.136Z,57.20
2024-03-01T01:01:31.951Z,55.92
2024-03-01T01:06:33.658Z,51.50
2024-03-01T01:11:35.418Z,42.58
2024-03-01T01:16:37.222Z,46.15
2024-03-01T01:21:39.019Z,40.03
2024-03-01T01:26:40.897Z,44.53
2024-03-01T01:31:42.634Z,45.38
2024-03-01T01:36:44.513Z,46.65
2024-03-01T01:41:46.567Z,49.97
2024-03-01T01:46:52.064Z,44.42
2024-03-01T01:51:54.389Z,46.88
2024-03-01T01:56:56.461Z,40.10
2024-03-01T02:01:59.580Z,48.15
2024-03-01T02:07:01.452Z,44.28
2024-03-01T02:12:03.658Z,41.80
2024-03-01T02:17:05.598Z,54.08
2024-03-01T02:22:13.105Z,53.65
2024-03-01T02:27:14.835Z,42.67
2024-03-01T02:32:16.602Z,41.97
2024-03-01T02:37:18.337Z,44.88
2024-03-01T02:42:20.024Z,37.63
2024-03-01T02:47:21.711Z,46.47
2024-03-01T02:52:23.521Z,40.08
2024-03-01T02:57:25.197Z,35.50
2024-03-01T03:02:27.580Z,42.17
2024-03-01T03:07:29.301Z,42.60
2024-03-01T03:12:31.262Z,43.08
2024-03-01T03:17:32.983Z,35.38
2024-03-01T03:29:21.644Z,40.67
2024-03-01T03:34:23.442Z,40.33
2024-03-01T03:39:25.206Z,44.78
2024-03-01T03:44:26.869Z,39.17
2024-03-01T03:49:28.807Z,46.90
2024-03-01T03:54:31.789Z,35.97
2024-03-01T03:59:33.511Z,28.35
2024-03-01T04:04:35.770Z,44.85
2024-03-01T04:09:37.791Z,48.83
2024-03-01T04:14:39.489Z,40.17
2024-03-01T04:19:41.166Z,35.97
2024-03-01T04:24:44.849Z,37.38
2024-03-01T04:29:46.537Z,34.33
2024-03-01T04:34:48.552Z,42.28
2024-03-01T04:39:50.263Z,43.80
2024-03-01T04:44:52.099Z,30.65
2024-03-01T04:49:53.786Z,33.67
2024-03-01T04:54:55.467Z,33.78
2024-03-01T04:59:57.190Z,37.58
2024-03-01T05:04:58.940Z,36.35
2024-03-01T05:10:00.895Z,36.45
2024-03-01T05:15:05.453Z,37.58
2024-03-01T05:20:15.454Z,34.03
2024-03-01T05:25:17.978Z,43.60
2024-03-01T05:30:36.077Z,40.85
2024-03-01T05:35:46.960Z,49.67
2024-03-01T05:40:52.514Z,47.70
2024-03-01T05:45:58.968Z,40.40
2024-03-01T05:51:00.811Z,41.85
2024-03-01T05:56:02.770Z,48.00
2024-03-01T06:01:05.501Z,51.40
2024-03-01T06:06:09.828Z,62.35
2024-03-01T06:11:11.977Z,52.30
2024-03-01T06:16:13.776Z,53.08
2024-03-01T06:21:22.848Z,56.20
2024-03-01T06:26:24.642Z,59.00
2024-03-01T06:31:26.403Z,60.08
2024-03-01T06:36:28.225Z,59.42
2024-03-01T06:41:30.051Z,53.53
2024-03-01T06:46:32.034Z,56.40
2024-03-01T06:51:33.740Z,59.80
2024-03-01T06:56:40.620Z,61.75
2024-03-01T07:01:42.493Z,69.93
2024-03-01T07:06:44.315Z,65.60
2024-03-01T07:11:46.065Z,58.10
2024-03-01T07:16:47.773Z,56.38
2024-03-01T07:21:49.484Z,52.45
2024-03-01T07:26:51.179Z,49.45
2024-03-01T07:31:53.837Z,50.40
2024-03-01T07:36:55.552Z,47.60
2024-03-01T07:41:57.370Z,56.72
2024-03-01T07:46:59.491Z,60.28
2024-03-01T07:52:02.958Z,64.28
2024-03-01T07:57:04.893Z,56.90
2024-03-01T08:02:09.892Z,52.08
2024-03-01T08:07:14.950Z,51.38
2024-03-01T08:12:20.015Z,42.58
2024-03-01T08:17:22.022Z,44.50
2024-03-01T08:22:25.390Z,43.42
2024-03-01T08:27:30.031Z,33.88
2024-03-01T08:32:38.066Z,43.22
2024-03-01T08:37:40.536Z,40.38
2024-03-01T08:42:42.290Z,41.13
2024-03-01T08:47:48.485Z,46.90
2024-03-01T08:52:50.531Z,54.37
2024-03-01T08:57:54.302Z,51.88
2024-03-01T09:02:56.565Z,48.70
2024-03-01T09:08:07.577Z,65.18
2024-03-01T09:13:10.286Z,35.25
2024-03-01T09:18:27.630Z,36.97
2024-03-01T09:23:30.445Z,38.33
2024-03-01T09:28:32.366Z,48.22
2024-03-01T09:33:34.362Z,44.88
2024-03-01T09:38:36.321Z,40.03
2024-03-01T09:43:55.604Z,37.85
2024-03-01T09:49:10.011Z,40.55
2024-03-01T09:54:20.399Z,42.20
2024-03-01T09:59:45.127Z,52.92
2024-03-01T10:05:11.153Z,51.35
2024-03-01T10:10:49.125Z,55.78
2024-03-01T10:16:37.812Z,39.70
2024-03-01T10:22:16.845Z,45.83
2024-03-01T10:27:37.219Z,45.38
2024-03-01T10:32:50.496Z,49.65
2024-03-01T10:38:19.651Z,38.67
2024-03-01T10:43:21.365Z,34.92
2024-03-01T10:48:23.231Z,36.97
2024-03-01T10:53:35.828Z,36.67
2024-03-01T10:58:52.535Z,35.67
2024-03-01T11:09:28.858Z,32.55
2024-03-01T11:14:34.964Z,30.50
2024-03-01T11:19:39.092Z,31.00
2024-03-01T11:24:51.013Z,32.60
2024-03-01T11:30:00.611Z,32.47
2024-03-01T11:35:47.648Z,31.25
2024-03-01T11:41:27.828Z,36.78
2024-03-01T11:46:56.378Z,33.97
2024-03-01T11:52:16.108Z,33.55
2024-03-01T11:57:38.321Z,31.15
2024-03-01T12:02:59.085Z,34.47
2024-03-01T12:08:37.396Z,31.58
2024-03-01T12:13:48.155Z,25.27
2024-03-01T12:19:02.994Z,32.72
2024-03-01T12:24:19.901Z,28.05
2024-03-01T12:29:35.721Z,29.48
2024-03-01T12:34:41.262Z,24.33
2024-03-01T12:39:54.797Z,39.38
2024-03-01T12:45:35.338Z,30.95
2024-03-01T12:50:40.173Z,32.25
2024-03-01T12:55:52.184Z,29.70
2024-03-01T13:01:10.242Z,21.80
2024-03-01T13:06:13.750Z,23.17
2024-03-01T13:11:19.564Z,29.58
2024-03-01T13:16:22.738Z,23.60
2024-03-01T13:21:37.790Z,22.15
2024-03-01T13:26:58.823Z,23.45
2024-03-01T13:32:10.466Z,24.52
2024-03-01T13:37:14.982Z,24.27
2024-03-01T13:42:35.700Z,21.67
2024-03-01T13:47:48.079Z,23.27
2024-03-01T13:52:50.225Z,22.60
2024-03-01T13:57:52.005Z,22.15
2024-03-01T14:02:54.033Z,25.25
2024-03-01T14:07:59.271Z,26.23
2024-03-01T14:13:01.551Z,18.67
2024-03-01T14:18:04.614Z,22.80
2024-03-01T14:23:08.820Z,21.63
2024-03-01T14:28:10.948Z,19.25
2024-03-01T14:33:22.637Z,18.20
2024-03-01T14:38:26.213Z,26.15
2024-03-01T14:43:29.672Z,21.27
2024-03-01T14:48:34.251Z,22.15
2024-03-01T14:53:47.191Z,25.42
2024-03-01T14:58:51.348Z,18.08
2024-03-01T15:03:53.407Z,23.40
2024-03-01T15:08:55.479Z,17.02
2024-03-01T15:14:07.795Z,27.23
2024-03-01T15:19:14.542Z,23.58
2024-03-01T15:24:20.196Z,20.75
2024-03-01T15:29:21.916Z,21.58
2024-03-01T15:34:24.010Z,30.65
2024-03-01T15:39:25.676Z,22.70
2024-03-01T15:44:27.391Z,25.27
2024-03-01T15:49:29.178Z,17.98
2024-03-01T15:54:30.900Z,20.15
2024-03-01T15:59:32.704Z,17.45
2024-03-01T16:04:34.388Z,16.75
2024-03-01T16:09:36.856Z,18.10
2024-03-01T16:14:47.502Z,19.88
2024-03-01T16:19:49.567Z,17.65
2024-03-01T16:24:51.989Z,22.20
2024-03-01T16:29:56.900Z,24.00
2024-03-01T16:35:01.109Z,16.83
2024-03-01T16:40:06.856Z,19.90
2024-03-01T16:45:28.970Z,18.45
2024-03-01T16:50:30.698Z,19.58
2024-03-01T16:55:47.615Z,29.52
2024-03-01T17:00:49.633Z,24.75
2024-03-01T17:05:52.524Z,33.05
2024-03-01T17:10:54.771Z,28.05
2024-03-01T17:15:56.878Z,28.70
2024-03-01T17:20:58.669Z,36.67
2024-03-01T17:26:00.765Z,25.00
2024-03-01T17:31:02.577Z,31.20
2024-03-01T17:36:04.595Z,30.58
2024-03-01T17:41:06.340Z,30.48
2024-03-01T17:46:08.127Z,32.80
2024-03-01T17:51:09.993Z,31.08
2024-03-01T17:56:12.342Z,24.42
2024-03-01T18:01:14.685Z,23.38
2024-03-01T18:06:16.469Z,26.08
2024-03-01T18:11:18.446Z,26.50
2024-03-01T18:16:21.292Z,29.02
2024-03-01T18:21:22.973Z,27.30
2024-03-01T18:26:24.608Z,20.75
2024-03-01T18:31:26.462Z,23.58
2024-03-01T18:36:28.226Z,21.95
2024-03-01T18:41:29.936Z,27.98
2024-03-01T18:46:31.875Z,34.95
2024-03-01T18:51:34.450Z,24.92
2024-03-01T18:56:36.248Z,29.10
2024-03-01T19:01:38.379Z,25.40
2024-03-01T19:06:40.483Z,26.27
2024-03-01T19:11:42.593Z,25.00
2024-03-01T19:16:44.519Z,38.85
2024-03-01T19:21:47.915Z,31.92
2024-03-01T19:26:49.612Z,210.73
2024-03-01T19:31:51.630Z,308.20
2024-03-01T19:36:53.479Z,129.35
2024-03-01T19:41:55.211Z,55.75
2024-03-01T19:46:58.601Z,38.63
2024-03-01T19:52:00.628Z,48.95
2024-03-01T19:57:04.439Z,49.45
2024-03-01T20:02:09.588Z,48.08
2024-03-01T20:07:11.425Z,47.80
2024-03-01T20:12:13.292Z,48.30
2024-03-01T20:17:15.027Z,59.17
2024-03-01T20:22:16.809Z,41.30
2024-03-01T20:27:19.193Z,43.72
2024-03-01T20:32:21.152Z,45.13
2024-03-01T20:37:23.043Z,42.85
2024-03-01T20:42:25.387Z,46.05
2024-03-01T20:47:27.116Z,34.08
2024-03-01T20:52:28.898Z,57.97
2024-03-01T20:57:34.368Z,44.20
2024-03-01T21:02:36.893Z,42.60
2024-03-01T21:07:39.823Z,52.92
2024-03-01T21:12:41.729Z,47.10
2024-03-01T21:17:49.704Z,53.40
2024-03-01T21:22:54.357Z,41.45
2024-03-01T21:27:56.405Z,39.15
2024-03-01T21:33:02.044Z,53.33
2024-03-01T21:38:04.887Z,46.83
2024-03-01T21:43:07.343Z,41.60
2024-03-01T21:48:09.398Z,44.50
2024-03-01T21:53:11.299Z,51.40
2024-03-01T21:58:13.282Z,52.78
2024-03-01T22:03:15.076Z,52.35
2024-03-01T22:08:16.834Z,57.95
2024-03-01T22:13:18.502Z,48.75
2024-03-01T22:18:20.343Z,46.35
2024-03-01T22:23:22.676Z,44.78
2024-03-01T22:28:24.517Z,52.55
2024-03-01T22:33:26.433Z,47.45
2024-03-01T22:38:28.292Z,43.13
2024-03-01T22:43:30.257Z,53.83
2024-03-01T22:48:32.759Z,54.78
2024-03-01T22:53:35.545Z,51.55
2024-03-01T22:58:41.818Z,43.40
2024-03-01T23:03:44.421Z,51.58
2024-03-01T23:08:53.112Z,46.08
2024-03-01T23:13:54.814Z,41.97
2024-03-01T23:18:59.841Z,45.75
2024-03-01T23:24:01.680Z,41.47
2024-03-01T23:29:03.839Z,46.25
2024-03-01T23:34:05.550Z,43.75
2024-03-01T23:39:09.598Z,49.92
2024-03-01T23:44:11.662Z,50.72
2024-03-01T23:49:13.659Z,46.53
2024-03-01T23:54:15.616Z,56.28
2024-03-01T23:59:17.586Z,54.35
